Time;durP1;ratioP1;P1;durP2;ratioP2;P2;SDS_P1;SDS_P2;PMS_P1;PMS_P2;Temp;Humidity;BMP_temperature;BMP_pressure;BME280_temperature;BME280_humidity;BME280_pressure;Samples;Min_cycle;Max_cycle;Signal;HPM_P1;HPM_P2
2023/09/01 00:00:43;;;;;;;6.70;2.73;;;12.00;99.90;;;;;;5011264;28;20400;-60
2023/09/01 00:03:09;;;;;;;3.33;2.17;;;11.90;99.90;;;;;;4996367;28;20053;-60
2023/09/01 00:05:35;;;;;;;4.13;2.53;;;11.90;99.90;;;;;;4998595;28;20559;-57
2023/09/01 00:08:01;;;;;;;5.47;2.47;;;12.00;99.90;;;;;;4993799;28;20441;-58
2023/09/01 00:10:26;;;;;;;4.30;2.70;;;12.00;99.90;;;;;;4993245;28;20121;-57
2023/09/01 00:12:52;;;;;;;4.78;2.15;;;11.90;99.90;;;;;;4993515;28;20042;-59
2023/09/01 00:15:18;;;;;;;6.95;2.72;;;12.00;99.90;;;;;;4993395;28;20030;-57
2023/09/01 00:17:43;;;;;;;4.80;2.50;;;12.00;99.90;;;;;;4992917;28;20051;-57
2023/09/01 00:20:10;;;;;;;5.20;2.53;;;11.90;99.90;;;;;;4993470;28;20152;-57
2023/09/01 00:22:35;;;;;;;3.88;2.42;;;11.90;99.90;;;;;;4993127;28;20034;-58
2023/09/01 00:25:02;;;;;;;3.65;2.42;;;11.90;99.90;;;;;;4992935;28;20308;-58
2023/09/01 00:27:27;;;;;;;7.95;2.50;;;11.80;99.90;;;;;;4973822;28;20541;-58
2023/09/01 00:29:53;;;;;;;5.35;2.40;;;11.80;99.90;;;;;;4993478;28;20051;-57
2023/09/01 00:32:18;;;;;;;4.45;2.25;;;11.80;99.90;;;;;;4993027;28;20030;-57
2023/09/01 00:34:44;;;;;;;3.80;2.13;;;11.70;99.90;;;;;;4993600;28;20042;-57
2023/09/01 00:37:10;;;;;;;4.53;2.20;;;11.70;99.90;;;;;;4993137;28;20061;-57
2023/09/01 00:39:36;;;;;;;3.85;2.03;;;11.60;99.90;;;;;;5005663;28;20034;-58
2023/09/01 00:42:02;;;;;;;7.55;3.05;;;11.70;99.90;;;;;;5004567;28;20092;-58
2023/09/01 00:44:28;;;;;;;5.28;2.85;;;11.60;99.90;;;;;;4991510;28;20046;-58
2023/09/01 00:46:53;;;;;;;7.88;2.38;;;11.70;99.90;;;;;;4992708;28;20042;-60
2023/09/01 00:49:19;;;;;;;3.08;2.42;;;11.70;99.90;;;;;;4993106;28;20493;-57
2023/09/01 00:51:47;;;;;;;7.43;2.50;;;11.70;99.90;;;;;;4993492;28;20038;-57
2023/09/01 00:54:13;;;;;;;7.97;2.67;;;11.70;99.90;;;;;;4993345;28;20121;-57
2023/09/01 00:56:39;;;;;;;7.13;2.90;;;11.60;99.90;;;;;;4992902;28;20054;-58
2023/09/01 00:59:05;;;;;;;8.18;2.67;;;11.50;99.90;;;;;;4992924;28;20097;-56
2023/09/01 01:01:31;;;;;;;8.15;2.63;;;11.60;99.90;;;;;;4992666;28;20089;-57
2023/09/01 01:03:57;;;;;;;7.50;2.78;;;11.60;99.90;;;;;;4993107;28;20050;-57
2023/09/01 01:06:43;;;;;;;4.45;2.85;;;11.50;99.90;;;;;;4992634;28;20042;-57
2023/09/01 01:09:27;;;;;;;4.88;2.83;;;11.50;99.90;;;;;;4992476;28;20072;-57
2023/09/01 01:12:10;;;;;;;5.90;2.70;;;11.40;99.90;;;;;;4992801;28;20038;-57
2023/09/01 01:14:55;;;;;;;6.65;2.50;;;11.40;99.90;;;;;;4992727;28;20042;-58
2023/09/01 01:17:21;;;;;;;4.57;2.20;;;11.40;99.90;;;;;;4992859;28;20449;-58
2023/09/01 01:19:59;;;;;;;7.78;2.78;;;11.30;99.90;;;;;;4992852;28;20053;-59
2023/09/01 01:22:27;;;;;;;5.35;2.42;;;11.80;99.90;;;;;;4992079;28;20117;-59
2023/09/01 01:24:53;;;;;;;6.45;2.80;;;11.30;99.90;;;;;;4962063;28;20389;-57
2023/09/01 01:27:19;;;;;;;7.65;2.35;;;11.40;99.90;;;;;;4992506;28;20056;-58
2023/09/01 01:29:45;;;;;;;5.53;2.53;;;11.30;99.90;;;;;;4992563;28;20049;-58
2023/09/01 01:32:10;;;;;;;4.53;2.40;;;11.30;99.90;;;;;;4992157;28;20043;-57
2023/09/01 01:34:37;;;;;;;4.90;2.40;;;11.30;99.90;;;;;;4992296;28;20070;-57
2023/09/01 01:37:12;;;;;;;4.50;2.05;;;11.30;99.90;;;;;;4992441;28;20045;-57
2023/09/01 01:39:40;;;;;;;4.63;2.58;;;11.20;99.90;;;;;;4992098;28;20039;-57
2023/09/01 01:42:09;;;;;;;3.85;2.53;;;11.20;99.90;;;;;;4992478;28;20042;-56
2023/09/01 01:44:39;;;;;;;7.55;2.80;;;11.20;99.90;;;;;;4992180;28;20512;-57
2023/09/01 01:47:06;;;;;;;4.22;2.40;;;11.20;99.90;;;;;;4992397;28;20086;-58
2023/09/01 01:49:33;;;;;;;5.28;2.85;;;11.20;99.90;;;;;;4992504;28;20081;-57
2023/09/01 01:52:00;;;;;;;5.00;2.40;;;11.20;99.90;;;;;;4992774;28;20056;-57
2023/09/01 01:54:27;;;;;;;2.92;2.13;;;11.20;99.90;;;;;;4992471;28;20158;-57
2023/09/01 01:56:53;;;;;;;4.78;2.72;;;11.10;99.90;;;;;;4992373;28;20069;-57
2023/09/01 01:59:18;;;;;;;4.22;2.42;;;11.10;99.90;;;;;;4992093;28;20042;-57
2023/09/01 02:01:44;;;;;;;7.07;2.28;;;11.00;99.90;;;;;;4988495;28;20056;-57
2023/09/01 02:04:10;;;;;;;5.18;2.30;;;11.10;99.90;;;;;;4992155;28;20049;-57
2023/09/01 02:06:35;;;;;;;2.55;2.20;;;11.10;99.90;;;;;;4981469;28;20046;-58
2023/09/01 02:09:03;;;;;;;3.35;2.20;;;11.10;99.90;;;;;;4992181;28;20034;-58
2023/09/01 02:11:29;;;;;;;3.58;2.35;;;11.00;99.90;;;;;;4991756;28;20050;-58
2023/09/01 02:13:56;;;;;;;8.40;2.42;;;11.00;99.90;;;;;;4991982;28;20039;-58
2023/09/01 02:16:25;;;;;;;2.70;2.13;;;11.00;99.90;;;;;;4991687;28;20042;-58
2023/09/01 02:18:50;;;;;;;4.07;2.67;;;11.10;99.90;;;;;;4987974;28;20061;-57
2023/09/01 02:21:20;;;;;;;3.53;2.63;;;10.90;99.90;;;;;;4985570;28;20035;-57
2023/09/01 02:23:49;;;;;;;5.70;3.20;;;10.90;99.90;;;;;;4984293;28;20054;-56
2023/09/01 02:26:18;;;;;;;;;;;11.00;99.90;;;;;;4985267;28;20042;-57
2023/09/01 02:28:44;;;;;;;3.95;2.30;;;10.90;99.90;;;;;;4986207;28;19922;-57
2023/09/01 02:31:10;;;;;;;6.55;2.58;;;11.00;99.90;;;;;;4983625;28;20062;-58
2023/09/01 02:33:35;;;;;;;6.03;2.80;;;10.90;99.90;;;;;;4974319;28;20133;-56
2023/09/01 02:36:21;;;;;;;5.78;2.50;;;10.80;99.90;;;;;;4989074;28;20372;-56
2023/09/01 02:38:47;;;;;;;5.57;2.60;;;10.90;99.90;;;;;;4972891;28;20474;-57
2023/09/01 02:41:12;;;;;;;4.22;2.80;;;10.80;99.90;;;;;;4985900;28;20050;-57
2023/09/01 02:43:38;;;;;;;4.00;2.65;;;10.90;99.90;;;;;;4989328;28;20393;-57
2023/09/01 02:46:04;;;;;;;3.53;2.70;;;10.80;99.90;;;;;;4987625;28;20046;-57
2023/09/01 02:48:30;;;;;;;3.00;2.60;;;10.80;99.90;;;;;;4986055;28;20050;-57
2023/09/01 02:50:56;;;;;;;11.57;2.88;;;10.80;99.90;;;;;;4979682;28;20053;-57
2023/09/01 02:53:21;;;;;;;4.95;2.70;;;10.90;99.90;;;;;;4991635;28;20429;-58
2023/09/01 02:55:47;;;;;;;6.45;2.35;;;10.80;99.90;;;;;;4989132;28;20050;-57
2023/09/01 02:58:13;;;;;;;6.32;2.40;;;10.80;99.90;;;;;;4991956;28;20038;-57
2023/09/01 03:00:38;;;;;;;5.35;2.83;;;10.80;99.90;;;;;;4991648;28;20043;-57
2023/09/01 03:03:04;;;;;;;4.97;2.60;;;10.90;99.90;;;;;;4986757;28;20058;-57
2023/09/01 03:05:29;;;;;;;7.38;2.70;;;10.90;99.90;;;;;;4994966;28;20049;-57
2023/09/01 03:07:57;;;;;;;3.33;2.60;;;10.90;99.90;;;;;;4989454;28;20089;-57
2023/09/01 03:10:23;;;;;;;4.07;2.60;;;10.80;99.90;;;;;;4988604;28;20158;-57
2023/09/01 03:12:49;;;;;;;2.88;2.17;;;10.80;99.90;;;;;;4985691;28;20157;-57
2023/09/01 03:15:15;;;;;;;5.22;2.70;;;10.80;99.90;;;;;;4992753;28;20038;-57
2023/09/01 03:17:40;;;;;;;3.60;2.17;;;10.90;99.90;;;;;;4995058;28;20034;-57
2023/09/01 03:20:09;;;;;;;3.85;2.80;;;10.90;99.90;;;;;;4994811;28;20034;-56
2023/09/01 03:22:35;;;;;;;4.80;2.40;;;10.90;99.90;;;;;;4961345;28;20121;-56
2023/09/01 03:25:01;;;;;;;5.65;2.25;;;10.80;99.90;;;;;;4994649;28;20121;-56
2023/09/01 03:27:27;;;;;;;8.15;2.63;;;10.70;99.90;;;;;;4977324;28;20125;-56
2023/09/01 03:29:54;;;;;;;4.40;2.80;;;10.60;99.90;;;;;;4994671;28;20081;-56
2023/09/01 03:32:20;;;;;;;5.63;3.13;;;10.70;99.90;;;;;;4981752;28;20117;-57
2023/09/01 03:34:45;;;;;;;3.63;2.75;;;10.60;99.90;;;;;;4971002;28;20125;-58
2023/09/01 03:37:12;;;;;;;4.60;2.72;;;10.60;99.90;;;;;;4984281;28;20038;-57
2023/09/01 03:39:38;;;;;;;3.83;2.50;;;10.60;99.90;;;;;;4994590;28;20088;-57
2023/09/01 03:42:04;;;;;;;4.15;2.90;;;10.60;99.90;;;;;;4994660;28;20096;-57
2023/09/01 03:44:31;;;;;;;8.60;3.00;;;10.60;99.90;;;;;;4977010;28;20046;-57
2023/09/01 03:46:58;;;;;;;4.75;3.00;;;10.70;99.90;;;;;;4994500;28;20053;-57
2023/09/01 03:49:26;;;;;;;6.13;2.80;;;10.60;99.90;;;;;;4994430;28;20042;-58
2023/09/01 03:51:52;;;;;;;3.70;2.60;;;10.70;99.90;;;;;;4994317;28;20086;-58
2023/09/01 03:54:17;;;;;;;5.07;3.13;;;10.70;99.90;;;;;;4994244;28;20034;-58
2023/09/01 03:56:43;;;;;;;4.95;2.45;;;10.70;99.90;;;;;;4994104;28;20054;-58
2023/09/01 03:59:09;;;;;;;3.65;2.70;;;10.70;99.90;;;;;;4994247;28;20374;-57
2023/09/01 04:01:35;;;;;;;4.78;2.88;;;10.70;99.90;;;;;;4990925;28;20046;-57
2023/09/01 04:04:01;;;;;;;3.10;2.63;;;10.70;99.90;;;;;;4994227;28;20448;-58
2023/09/01 04:06:27;;;;;;;3.55;2.35;;;10.70;99.90;;;;;;4990460;28;20110;-58
2023/09/01 04:08:52;;;;;;;6.78;2.83;;;10.70;99.90;;;;;;4994037;28;20505;-58
2023/09/01 04:11:18;;;;;;;5.53;2.72;;;10.70;99.90;;;;;;4989511;28;20046;-58
2023/09/01 04:13:44;;;;;;;3.28;2.35;;;10.70;99.90;;;;;;4994455;28;20043;-58
2023/09/01 04:16:09;;;;;;;1.88;1.67;;;10.70;99.90;;;;;;4992722;28;20058;-57
2023/09/01 04:18:35;;;;;;;2.78;2.15;;;10.70;99.90;;;;;;4993934;28;20105;-58
2023/09/01 04:21:01;;;;;;;4.13;2.15;;;10.70;99.90;;;;;;4993605;28;20034;-58
2023/09/01 04:23:27;;;;;;;3.58;2.50;;;10.70;99.90;;;;;;4992408;28;20524;-58
2023/09/01 04:25:53;;;;;;;5.88;2.42;;;10.50;99.90;;;;;;4993854;28;20042;-57
2023/09/01 04:28:19;;;;;;;4.38;2.60;;;10.60;99.90;;;;;;4976044;28;20150;-56
2023/09/01 04:30:46;;;;;;;8.07;2.53;;;10.60;99.90;;;;;;4993799;28;20038;-56
2023/09/01 04:33:12;;;;;;;4.97;2.50;;;10.60;99.90;;;;;;4990007;28;20111;-56
2023/09/01 04:35:39;;;;;;;2.83;2.33;;;10.60;99.90;;;;;;4993851;28;20182;-57
2023/09/01 04:38:04;;;;;;;4.80;2.95;;;10.60;99.90;;;;;;4990853;28;20042;-57
2023/09/01 04:40:30;;;;;;;4.07;2.20;;;10.50;99.90;;;;;;4986373;28;20381;-58
2023/09/01 04:42:56;;;;;;;7.03;2.70;;;10.50;99.90;;;;;;4982672;28;20046;-57
2023/09/01 04:45:25;;;;;;;3.47;2.45;;;10.50;99.90;;;;;;4991846;28;20049;-57
2023/09/01 04:47:51;;;;;;;6.13;3.58;;;10.40;99.90;;;;;;4993632;28;20038;-56
2023/09/01 04:50:17;;;;;;;5.22;2.95;;;10.40;99.90;;;;;;4993439;28;20070;-56
2023/09/01 04:52:43;;;;;;;4.97;2.70;;;10.40;99.90;;;;;;4993058;28;20489;-58
2023/09/01 04:55:09;;;;;;;4.13;2.88;;;10.40;99.90;;;;;;4993387;28;20111;-57
2023/09/01 04:57:38;;;;;;;4.97;2.97;;;10.50;99.90;;;;;;4992982;28;20406;-57
2023/09/01 05:00:15;;;;;;;7.85;2.90;;;10.40;99.90;;;;;;4993298;28;20053;-57
2023/09/01 05:02:41;;;;;;;6.05;3.45;;;10.50;99.90;;;;;;4989945;28;20034;-57
2023/09/01 05:05:08;;;;;;;5.03;3.30;;;10.50;99.90;;;;;;4992973;28;20524;-56
2023/09/01 05:07:33;;;;;;;5.38;3.60;;;10.50;99.90;;;;;;4985886;28;20117;-57
2023/09/01 05:09:59;;;;;;;4.05;3.35;;;10.60;99.90;;;;;;4986764;28;20174;-57
2023/09/01 05:12:24;;;;;;;5.13;3.70;;;10.60;99.90;;;;;;4991863;28;20096;-57
2023/09/01 05:14:50;;;;;;;7.90;4.25;;;10.60;99.90;;;;;;4992843;28;20062;-57
2023/09/01 05:17:16;;;;;;;7.28;4.03;;;10.70;99.90;;;;;;4993373;28;20113;-57
2023/09/01 05:19:41;;;;;;;8.27;4.20;;;10.70;99.90;;;;;;4992791;28;20540;-57
2023/09/01 05:22:07;;;;;;;5.90;3.95;;;10.80;99.90;;;;;;4992601;28;20121;-57
2023/09/01 05:24:32;;;;;;;5.75;3.50;;;10.90;99.90;;;;;;4991351;28;20132;-57
2023/09/01 05:26:58;;;;;;;7.05;3.28;;;11.00;99.90;;;;;;4991822;28;20041;-57
2023/09/01 05:29:24;;;;;;;6.45;3.42;;;11.00;99.90;;;;;;4988279;28;20397;-57
2023/09/01 05:31:50;;;;;;;7.10;3.95;;;11.20;99.90;;;;;;4980033;28;20034;-57
2023/09/01 05:34:16;;;;;;;6.82;3.83;;;11.30;99.90;;;;;;4983052;28;20026;-56
2023/09/01 05:36:41;;;;;;;7.85;3.80;;;11.30;99.90;;;;;;4984197;28;20042;-56
2023/09/01 05:39:07;;;;;;;5.78;3.65;;;11.40;99.90;;;;;;4985596;28;20472;-57
2023/09/01 05:41:33;;;;;;;6.50;4.10;;;11.50;99.90;;;;;;4992263;28;20046;-56
2023/09/01 05:43:58;;;;;;;7.88;4.18;;;11.60;99.90;;;;;;4992418;28;20034;-54
2023/09/01 05:46:24;;;;;;;8.32;4.03;;;11.70;99.90;;;;;;4990309;28;20038;-57
2023/09/01 05:48:50;;;;;;;6.05;4.00;;;11.90;99.90;;;;;;4989767;28;20440;-56
2023/09/01 05:51:15;;;;;;;3.90;3.22;;;12.10;99.90;;;;;;4992411;28;20117;-55
2023/09/01 05:53:41;;;;;;;5.80;3.40;;;12.20;99.90;;;;;;4991447;28;20038;-57
2023/09/01 05:56:07;;;;;;;6.97;3.65;;;12.40;99.90;;;;;;4991970;28;20461;-56
2023/09/01 05:58:35;;;;;;;8.02;3.67;;;12.50;99.90;;;;;;4992178;28;20048;-57
2023/09/01 06:01:01;;;;;;;8.80;4.18;;;12.60;99.90;;;;;;4989714;28;20477;-56
2023/09/01 06:03:26;;;;;;;7.35;4.00;;;12.70;99.90;;;;;;4987454;28;20049;-57
2023/09/01 06:05:52;;;;;;;7.15;3.80;;;12.80;99.90;;;;;;4982494;28;20046;-57
2023/09/01 06:08:19;;;;;;;5.78;3.60;;;12.80;99.90;;;;;;4992049;28;20041;-57
2023/09/01 06:10:44;;;;;;;7.05;3.33;;;12.80;99.90;;;;;;4992195;28;20039;-57
2023/09/01 06:13:10;;;;;;;4.47;3.55;;;13.00;99.90;;;;;;4991849;28;20026;-57
2023/09/01 06:15:36;;;;;;;4.65;3.70;;;13.10;99.90;;;;;;4992120;28;20121;-57
2023/09/01 06:18:02;;;;;;;7.82;3.20;;;13.10;99.90;;;;;;4991765;28;20049;-56
2023/09/01 06:20:28;;;;;;;3.80;3.13;;;13.10;99.90;;;;;;4992377;28;20080;-57
2023/09/01 06:22:54;;;;;;;6.97;3.50;;;13.10;99.90;;;;;;4992419;28;20050;-57
2023/09/01 06:25:20;;;;;;;3.75;3.03;;;13.30;99.90;;;;;;4992538;28;20042;-57
2023/09/01 06:27:47;;;;;;;4.93;3.40;;;13.40;99.90;;;;;;4992203;28;20053;-56
2023/09/01 06:30:13;;;;;;;9.73;3.92;;;13.50;99.90;;;;;;4992007;28;20054;-56
2023/09/01 06:32:38;;;;;;;6.90;3.63;;;13.60;99.90;;;;;;4986839;28;20104;-55
2023/09/01 06:35:04;;;;;;;6.18;3.72;;;13.70;99.90;;;;;;4989990;28;20463;-57
2023/09/01 06:37:30;;;;;;;6.18;3.22;;;13.80;99.90;;;;;;4987357;28;20026;-58
2023/09/01 06:39:56;;;;;;;5.82;2.70;;;13.90;99.90;;;;;;4994653;28;20034;-56
2023/09/01 06:42:22;;;;;;;4.60;2.90;;;14.00;99.90;;;;;;4990892;28;20401;-57
2023/09/01 06:44:47;;;;;;;6.18;2.83;;;14.20;99.90;;;;;;4983973;28;20047;-57
2023/09/01 06:47:13;;;;;;;9.55;2.63;;;14.40;99.90;;;;;;4992746;28;20089;-56
2023/09/01 06:49:39;;;;;;;5.13;2.80;;;14.60;99.90;;;;;;4994582;28;20038;-57
2023/09/01 06:52:05;;;;;;;4.22;2.60;;;14.70;99.90;;;;;;4973787;28;20042;-57
2023/09/01 06:54:30;;;;;;;10.85;3.10;;;14.70;99.90;;;;;;4995497;28;20039;-57
2023/09/01 06:56:56;;;;;;;7.82;3.30;;;14.80;99.90;;;;;;4995481;28;20390;-56
2023/09/01 06:59:22;;;;;;;4.40;2.65;;;15.10;99.90;;;;;;4995249;28;20408;-56
2023/09/01 07:01:47;;;;;;;3.67;2.50;;;15.50;99.90;;;;;;4995021;28;20507;-57
2023/09/01 07:04:13;;;;;;;4.55;2.42;;;15.80;99.90;;;;;;4977398;28;20046;-58
2023/09/01 07:06:38;;;;;;;6.38;2.25;;;15.80;99.90;;;;;;4995585;28;20038;-57
2023/09/01 07:09:04;;;;;;;8.43;3.03;;;16.00;99.90;;;;;;4995275;28;20056;-54
2023/09/01 07:11:30;;;;;;;26.83;3.25;;;16.10;99.90;;;;;;4995092;28;20046;-56
2023/09/01 07:13:55;;;;;;;5.30;2.33;;;16.10;99.90;;;;;;4988181;28;20047;-54
2023/09/01 07:16:21;;;;;;;4.22;2.45;;;16.20;99.90;;;;;;4994831;28;20042;-56
2023/09/01 07:18:47;;;;;;;6.63;1.90;;;16.30;99.90;;;;;;4995229;28;20093;-56
2023/09/01 07:21:12;;;;;;;2.75;1.50;;;16.50;99.90;;;;;;4994761;28;20035;-56
2023/09/01 07:23:40;;;;;;;4.00;1.70;;;16.80;99.90;;;;;;4981546;28;20543;-55
2023/09/01 07:26:06;;;;;;;8.38;1.77;;;17.00;99.90;;;;;;4995042;28;20548;-55
2023/09/01 07:28:32;;;;;;;4.95;1.95;;;17.40;99.90;;;;;;4995166;28;20050;-55
2023/09/01 07:30:58;;;;;;;5.43;1.63;;;17.60;99.90;;;;;;4994584;28;20133;-56
2023/09/01 07:33:23;;;;;;;4.47;1.73;;;17.80;99.90;;;;;;4994969;28;20101;-56
2023/09/01 07:35:50;;;;;;;3.58;1.65;;;18.20;99.90;;;;;;4994761;28;20042;-57
2023/09/01 07:38:17;;;;;;;4.38;1.95;;;18.30;99.90;;;;;;4976912;28;20117;-57
2023/09/01 07:40:44;;;;;;;6.80;1.30;;;18.60;99.90;;;;;;4994940;28;20046;-56
2023/09/01 07:43:10;;;;;;;7.85;1.83;;;18.60;99.90;;;;;;4994160;28;20034;-57
2023/09/01 07:45:36;;;;;;;5.28;2.33;;;18.90;99.90;;;;;;4994560;28;20053;-56
2023/09/01 07:48:02;;;;;;;3.38;1.70;;;18.90;99.90;;;;;;4994367;28;20050;-56
2023/09/01 07:50:30;;;;;;;4.07;1.20;;;18.90;99.90;;;;;;4994410;28;20045;-55
2023/09/01 07:52:59;;;;;;;6.63;1.65;;;18.90;99.90;;;;;;4994454;28;20042;-57
2023/09/01 07:55:26;;;;;;;8.00;1.70;;;18.80;99.90;;;;;;4994752;28;20050;-57
2023/09/01 07:57:52;;;;;;;4.13;1.45;;;18.70;99.90;;;;;;4976823;28;20311;-56
2023/09/01 08:00:18;;;;;;;2.42;1.35;;;18.70;99.90;;;;;;4994559;28;20129;-56
2023/09/01 08:02:43;;;;;;;3.50;1.00;;;18.60;99.90;;;;;;4993494;28;20485;-56
2023/09/01 08:05:09;;;;;;;5.03;1.60;;;18.50;99.90;;;;;;4994550;28;20528;-57
2023/09/01 08:07:36;;;;;;;4.72;1.20;;;18.50;99.90;;;;;;4994487;28;20388;-56
2023/09/01 08:10:03;;;;;;;2.88;1.40;;;18.50;99.90;;;;;;4980742;28;20053;-56
2023/09/01 08:12:29;;;;;;;5.97;1.60;;;18.50;99.90;;;;;;4994381;28;20061;-57
2023/09/01 08:14:55;;;;;;;3.80;1.05;;;18.60;99.90;;;;;;4976258;28;20050;-56
2023/09/01 08:17:21;;;;;;;5.15;1.27;;;18.70;99.90;;;;;;4995483;28;20054;-56
2023/09/01 08:19:48;;;;;;;3.92;1.40;;;18.70;99.90;;;;;;4994039;28;20404;-56
2023/09/01 08:22:14;;;;;;;3.75;1.15;;;18.70;99.90;;;;;;4995095;28;20046;-57
2023/09/01 08:24:39;;;;;;;3.70;1.10;;;18.60;99.90;;;;;;4995115;28;20133;-57
2023/09/01 08:27:05;;;;;;;5.32;1.65;;;18.50;99.90;;;;;;4994485;28;20440;-56
2023/09/01 08:29:34;;;;;;;3.47;1.20;;;18.40;99.90;;;;;;4994589;28;20077;-56
2023/09/01 08:32:00;;;;;;;;;;;18.40;99.90;;;;;;4994912;28;20405;-56
2023/09/01 08:34:29;;;;;;;;;;;18.40;99.90;;;;;;4994429;28;19917;-56
2023/09/01 08:36:55;;;;;;;;;;;18.50;99.90;;;;;;4994641;28;19917;-56
2023/09/01 08:39:20;;;;;;;;;;;18.50;99.90;;;;;;4995128;28;20257;-56
2023/09/01 08:41:48;;;;;;;;;;;18.50;99.90;;;;;;4994679;28;19918;-57
2023/09/01 08:44:14;;;;;;;;;;;18.30;99.90;;;;;;4993953;28;19917;-57
2023/09/01 08:46:40;;;;;;;;;;;18.30;99.90;;;;;;4993694;28;19925;-57
2023/09/01 08:49:05;;;;;;;;;;;18.30;99.90;;;;;;4976316;28;19917;-57
2023/09/01 08:51:31;;;;;;;;;;;18.30;99.90;;;;;;4993244;28;19980;-58
2023/09/01 08:53:57;;;;;;;;;;;18.30;99.90;;;;;;4976062;28;20364;-57
2023/09/01 08:56:22;;;;;;;;;;;18.30;99.90;;;;;;4993505;28;19925;-57
2023/09/01 08:58:48;;;;;;;;;;;18.30;99.90;;;;;;4992675;28;20320;-56
2023/09/01 09:01:14;;;;;;;;;;;18.20;99.90;;;;;;4992553;28;19924;-55
2023/09/01 09:03:40;;;;;;;;;;;18.30;99.90;;;;;;4984516;28;19941;-57
2023/09/01 09:06:05;;;;;;;;;;;18.20;99.90;;;;;;4988961;28;20364;-57
2023/09/01 09:08:32;;;;;;;;;;;18.20;99.90;;;;;;4993279;28;19957;-57
2023/09/01 09:10:57;;;;;;;;;;;18.10;99.90;;;;;;4993204;28;19922;-55
2023/09/01 09:13:24;;;;;;;;;;;18.20;99.90;;;;;;4993311;28;19925;-57
2023/09/01 09:16:06;;;;;;;;;;;18.20;99.90;;;;;;4991767;28;19917;-57
2023/09/01 09:18:31;;;;;;;;;;;18.10;99.90;;;;;;4994891;28;19917;-57
2023/09/01 09:20:57;;;;;;;;;;;18.10;99.90;;;;;;4975833;28;19917;-56
2023/09/01 09:23:40;;;;;;;;;;;18.10;99.90;;;;;;4994385;28;19990;-57
2023/09/01 09:26:06;;;;;;;;;;;18.10;99.90;;;;;;4994252;28;19917;-57
2023/09/01 09:28:32;;;;;;;;;;;18.00;99.90;;;;;;4994121;28;19968;-56
2023/09/01 09:31:00;;;;;;;;;;;18.00;99.90;;;;;;4976302;28;20044;-57
2023/09/01 09:33:27;;;;;;;;;;;18.20;99.90;;;;;;4992784;28;19975;-58
2023/09/01 09:35:53;;;;;;;;;;;18.10;99.90;;;;;;4992436;28;19926;-57
2023/09/01 09:38:18;;;;;;;;;;;18.10;99.90;;;;;;4975558;28;20293;-57
2023/09/01 09:40:57;;;;;;;;;;;18.10;99.90;;;;;;4994729;28;19925;-57
2023/09/01 09:43:23;;;;;;;;;;;18.00;99.90;;;;;;4993744;28;19917;-57
2023/09/01 09:45:51;;;;;;;;;;;18.10;99.90;;;;;;4992798;28;19925;-57
2023/09/01 09:48:17;;;;;;;;;;;18.10;99.90;;;;;;4993907;28;19924;-57
2023/09/01 09:50:43;;;;;;;;;;;18.10;99.90;;;;;;4993417;28;19926;-57
2023/09/01 09:53:09;;;;;;;;;;;18.10;99.90;;;;;;4993281;28;19918;-57
2023/09/01 09:55:55;;;;;;;;;;;18.00;99.90;;;;;;4993682;28;19918;-56
2023/09/01 09:58:26;;;;;;;;;;;18.00;99.90;;;;;;4988591;28;20396;-59
2023/09/01 10:01:01;;;;;;;;;;;18.20;99.90;;;;;;4994103;28;20055;-60
2023/09/01 10:03:31;;;;;;;;;;;18.10;99.90;;;;;;4993842;28;20361;-59
2023/09/01 10:06:00;;;;;;;;;;;18.20;99.90;;;;;;4994175;28;19918;-59
2023/09/01 10:08:26;;;;;;;;;;;18.20;99.90;;;;;;4992623;28;20022;-59
2023/09/01 10:10:52;;;;;;;;;;;18.20;99.90;;;;;;4992032;28;19926;-60
2023/09/01 10:13:17;;;;;;;;;;;18.20;99.90;;;;;;4993251;28;19918;-59
2023/09/01 10:15:45;;;;;;;;;;;18.20;99.90;;;;;;4997990;28;20368;-59
2023/09/01 10:18:10;;;;;;;;;;;18.30;99.90;;;;;;4997474;28;19918;-61
2023/09/01 10:20:38;;;;;;;;;;;18.30;99.90;;;;;;4997056;28;19924;-60
2023/09/01 10:23:05;;;;;;;;;;;18.30;99.90;;;;;;4997994;28;19981;-60
2023/09/01 10:25:31;;;;;;;;;;;18.30;99.90;;;;;;4998266;28;19968;-60
2023/09/01 10:28:06;;;;;;;;;;;18.50;99.90;;;;;;4997191;28;19925;-60
2023/09/01 10:30:32;;;;;;;;;;;18.60;99.90;;;;;;4996401;28;19922;-59
2023/09/01 10:33:30;;;;;;;;;;;18.80;99.90;;;;;;4997002;28;20012;-59
2023/09/01 10:35:57;;;;;;;;;;;18.90;99.90;;;;;;4937313;29;20397;-60
2023/09/01 10:38:36;;;;;;;;;;;18.90;99.90;;;;;;4905273;29;19923;-60
2023/09/01 10:41:02;;;;;;;;;;;19.00;99.90;;;;;;4937044;29;20125;-60
2023/09/01 10:43:37;;;;;;;;;;;18.90;99.90;;;;;;4937251;29;20352;-61
2023/09/01 10:46:32;;;;;;;;;;;19.00;99.90;;;;;;4936939;29;19923;-62
2023/09/01 10:49:01;;;;;;;;;;;18.90;99.90;;;;;;4922729;29;19919;-60
2023/09/01 10:51:27;;;;;;;;;;;19.00;99.90;;;;;;4918273;29;19962;-59
2023/09/01 10:53:55;;;;;;;;;;;19.10;99.90;;;;;;4918459;29;19919;-60
2023/09/01 10:56:21;;;;;;;;;;;19.10;99.90;;;;;;4922278;29;19919;-59
2023/09/01 10:58:51;;;;;;;;;;;19.10;99.90;;;;;;4911176;29;19948;-58
2023/09/01 11:01:23;;;;;;;;;;;19.20;99.90;;;;;;4906455;29;19919;-61
2023/09/01 11:03:48;;;;;;;;;;;19.30;99.90;;;;;;4937619;29;19925;-60
2023/09/01 11:06:14;;;;;;;;;;;19.30;99.90;;;;;;4929182;29;19919;-60
2023/09/01 11:08:41;;;;;;;;;;;19.20;99.90;;;;;;4917255;29;19918;-60
2023/09/01 11:11:08;;;;;;;;;;;19.40;99.90;;;;;;4946900;28;19928;-59
2023/09/01 11:13:33;;;;;;;;;;;19.50;99.90;;;;;;4997266;28;19949;-59
2023/09/01 11:16:06;;;;;;;;;;;19.60;99.90;;;;;;4997528;28;19918;-60
2023/09/01 11:18:32;;;;;;;;;;;19.80;99.90;;;;;;4997543;28;19918;-59
2023/09/01 11:21:00;;;;;;;;;;;19.80;99.90;;;;;;4995769;28;19925;-59
2023/09/01 11:23:27;;;;;;;;;;;19.70;99.90;;;;;;4996317;28;19917;-60
2023/09/01 11:25:55;;;;;;;;;;;19.70;99.90;;;;;;4995761;28;20295;-60
2023/09/01 11:28:20;;;;;;;;;;;19.60;99.90;;;;;;4996196;28;19925;-60
2023/09/01 11:31:03;;;;;;;;;;;19.60;99.90;;;;;;4996143;28;19921;-60
2023/09/01 11:33:33;;;;;;;;;;;19.70;99.90;;;;;;4992688;28;20442;-60
2023/09/01 11:36:05;;;;;;;;;;;19.80;99.90;;;;;;4995505;28;20303;-60
2023/09/01 11:38:30;;;;;;;;;;;19.90;99.90;;;;;;4992270;28;19925;-60
2023/09/01 11:40:56;;;;;;;;;;;20.10;99.90;;;;;;4995340;28;19917;-60
2023/09/01 11:43:22;;;;;;;;;;;20.10;99.90;;;;;;4995637;28;20365;-59
2023/09/01 11:45:48;;;;;;;;;;;20.10;99.90;;;;;;4995843;28;19917;-59
2023/09/01 11:48:24;;;;;;;;;;;20.40;99.90;;;;;;4999976;28;19917;-60
2023/09/01 11:50:55;;;;;;;;;;;20.50;99.90;;;;;;4995899;28;19926;-60
2023/09/01 11:53:22;;;;;;;;;;;20.70;99.90;;;;;;4995618;28;20031;-60
2023/09/01 11:55:47;;;;;;;;;;;20.90;99.90;;;;;;4978299;28;19941;-61
2023/09/01 11:58:13;;;;;;;;;;;21.00;99.90;;;;;;4994254;28;19922;-56
2023/09/01 12:00:39;;;;;;;;;;;21.10;99.90;;;;;;4994747;28;19929;-57
2023/09/01 12:03:05;;;;;;;;;;;21.30;99.90;;;;;;4995153;28;19917;-61
2023/09/01 12:05:31;;;;;;;;;;;21.30;99.90;;;;;;4994384;28;20331;-57
2023/09/01 12:07:57;;;;;;;;;;;21.30;99.90;;;;;;4994531;28;19918;-56
2023/09/01 12:10:23;;;;;;;;;;;21.40;99.90;;;;;;4994642;28;20284;-56
2023/09/01 12:12:49;;;;;;;;;;;21.50;99.90;;;;;;4994901;28;19921;-56
2023/09/01 12:15:15;;;;;;;;;;;21.60;99.90;;;;;;4993444;28;19918;-56
2023/09/01 12:17:40;;;;;;;;;;;21.60;99.90;;;;;;4977537;28;19968;-58
2023/09/01 12:20:08;;;;;;;;;;;21.60;99.90;;;;;;4994306;28;19918;-56
2023/09/01 12:22:34;;;;;;;;;;;21.50;99.90;;;;;;4994942;28;19961;-57
2023/09/01 12:25:00;;;;;;;;;;;21.50;99.90;;;;;;4994310;28;19960;-57
2023/09/01 12:27:26;;;;;;;;;;;21.50;99.90;;;;;;4994441;28;20380;-56
2023/09/01 12:29:54;;;;;;;;;;;21.60;99.90;;;;;;4995619;28;19921;-56
2023/09/01 12:32:20;;;;;;;;;;;21.50;99.90;;;;;;4994588;28;19944;-57
2023/09/01 12:34:46;;;;;;;;;;;21.50;99.90;;;;;;4994113;28;19918;-57
2023/09/01 12:37:12;;;;;;;;;;;21.30;99.90;;;;;;4973713;28;19922;-57
2023/09/01 12:39:38;;;;;;;;;;;21.20;99.90;;;;;;4994217;28;20438;-57
2023/09/01 12:42:04;;;;;;;;;;;21.30;99.90;;;;;;4994670;28;20008;-57
2023/09/01 12:44:29;;;;;;;;;;;21.30;99.90;;;;;;4994454;28;19941;-57
2023/09/01 12:46:56;;;;;;;;;;;21.40;99.90;;;;;;4993418;28;19963;-57
2023/09/01 12:49:21;;;;;;;;;;;21.40;99.90;;;;;;4994095;28;19968;-57
2023/09/01 12:51:47;;;;;;;;;;;21.50;99.90;;;;;;4976508;28;19961;-57
2023/09/01 12:54:14;;;;;;;;;;;21.50;99.90;;;;;;4994087;28;19967;-58
2023/09/01 12:56:39;;;;;;;;;;;21.60;99.90;;;;;;4992788;28;19925;-60
2023/09/01 12:59:05;;;;;;;;;;;21.60;99.90;;;;;;4989600;28;19917;-60
2023/09/01 13:01:30;;;;;;;;;;;21.60;99.90;;;;;;4994418;28;20396;-59
2023/09/01 13:03:56;;;;;;;;;;;21.80;99.90;;;;;;4994400;28;19926;-60
2023/09/01 13:06:21;;;;;;;;;;;21.80;99.90;;;;;;4993903;28;19928;-61
2023/09/01 13:08:47;;;;;;;;;;;21.80;99.90;;;;;;4989982;28;20364;-60
2023/09/01 13:11:14;;;;;;;;;;;21.70;99.90;;;;;;4991448;28;19922;-60
2023/09/01 13:13:40;;;;;;;;;;;21.60;99.90;;;;;;4994107;28;20388;-60
2023/09/01 13:16:06;;;;;;;;;;;21.70;99.90;;;;;;4993883;28;19957;-59